createdAt,value
2023-01-29T00:00:00.166Z,103269.53
2023-01-29T00:02:27.229Z,103277.59
2023-01-29T00:04:58.683Z,103261.00
2023-01-29T00:07:25.582Z,103263.63
2023-01-29T00:09:52.276Z,103260.00
2023-01-29T00:12:18.917Z,103251.31
2023-01-29T00:14:45.491Z,103244.25
2023-01-29T00:17:12.039Z,103244.25
2023-01-29T00:19:38.654Z,103232.91
2023-01-29T00:22:05.460Z,103221.56
2023-01-29T00:24:32.369Z,103230.09
2023-01-29T00:26:58.907Z,103217.31
2023-01-29T00:29:25.449Z,103213.66
2023-01-29T00:31:52.066Z,103205.13
2023-01-29T00:34:18.838Z,103212.84
2023-01-29T00:36:46.408Z,103216.28
2023-01-29T00:39:13.160Z,103222.41
2023-01-29T00:41:58.503Z,103230.28
2023-01-29T00:44:43.802Z,103228.47
2023-01-29T00:47:28.997Z,103232.06
2023-01-29T00:49:55.836Z,103215.47
2023-01-29T00:52:25.759Z,103215.47
2023-01-29T00:54:53.887Z,103216.28
2023-01-29T00:57:20.621Z,103212.03
2023-01-29T00:59:47.253Z,103211.22
2023-01-29T01:02:40.940Z,103212.84
2023-01-29T01:05:14.013Z,103206.78
2023-01-29T01:07:41.249Z,103203.34
2023-01-29T01:10:21.908Z,103213.88
2023-01-29T01:12:51.075Z,103202.72
2023-01-29T01:15:18.558Z,103198.25
2023-01-29T01:17:45.538Z,103202.50
2023-01-29T01:20:12.988Z,103190.19
2023-01-29T01:22:39.642Z,103196.44
2023-01-29T01:25:06.459Z,103190.19
2023-01-29T01:27:34.999Z,103196.28
2023-01-29T01:30:02.427Z,103203.34
2023-01-29T01:32:29.030Z,103202.34
2023-01-29T01:34:55.582Z,103212.69
2023-01-29T01:37:22.180Z,103210.22
2023-01-29T01:39:49.116Z,103216.28
2023-01-29T01:42:15.609Z,103217.94
2023-01-29T01:45:04.450Z,103211.03
2023-01-29T01:47:38.078Z,103212.69
2023-01-29T01:50:12.406Z,103212.69
2023-01-29T01:52:43.871Z,103206.41
2023-01-29T01:55:13.033Z,103217.94
2023-01-29T01:57:42.235Z,103208.41
2023-01-29T02:00:12.942Z,103215.31
2023-01-29T02:03:00.469Z,103208.41
2023-01-29T02:05:46.571Z,103205.59
2023-01-29T02:08:33.327Z,103204.78
2023-01-29T02:11:01.026Z,103206.41
2023-01-29T02:13:27.576Z,103210.69
2023-01-29T02:15:54.207Z,103214.13
2023-01-29T02:18:21.850Z,103209.69
2023-01-29T02:21:07.318Z,103211.50
2023-01-29T02:23:50.966Z,103207.06
2023-01-29T02:26:34.285Z,103205.28
2023-01-29T02:29:25.406Z,103210.53
2023-01-29T02:32:04.293Z,103204.44
2023-01-29T02:34:57.689Z,103213.50
2023-01-29T02:37:34.932Z,103218.91
2023-01-29T02:40:07.213Z,103224.56
2023-01-29T02:42:43.523Z,103229.63
2023-01-29T02:45:15.825Z,103231.44
2023-01-29T02:48:00.969Z,103229.81
2023-01-29T02:50:38.979Z,103236.69
2023-01-29T02:53:32.479Z,103234.06
2023-01-29T02:56:09.651Z,103231.44
2023-01-29T02:58:45.025Z,103234.25
2023-01-29T03:01:18.315Z,103231.63
2023-01-29T03:03:50.412Z,103229.16
2023-01-29T03:06:24.709Z,103223.09
2023-01-29T03:08:57.622Z,103216.19
2023-01-29T03:11:26.979Z,103210.94
2023-01-29T03:13:58.575Z,103208.13
2023-01-29T03:16:32.752Z,103209.75
2023-01-29T03:19:08.629Z,103202.72
2023-01-29T03:21:59.558Z,103195.63
2023-01-29T03:24:55.811Z,103194.63
2023-01-29T03:27:45.543Z,103194.81
2023-01-29T03:30:32.709Z,103192.84
2023-01-29T03:33:03.571Z,103184.75
2023-01-29T03:35:36.638Z,103176.84
2023-01-29T03:38:05.812Z,103173.41
2023-01-29T03:40:46.943Z,103173.41
2023-01-29T03:43:35.036Z,103161.09
2023-01-29T03:46:08.663Z,103158.66
2023-01-29T03:48:40.256Z,103167.34
2023-01-29T03:51:34.687Z,103158.44
2023-01-29T03:54:06.267Z,103155.81
2023-01-29T03:56:50.904Z,103160.28
2023-01-29T03:59:33.087Z,103165.53
2023-01-29T04:02:03.884Z,103154.38
2023-01-29T04:04:34.826Z,103145.69
2023-01-29T04:07:11.218Z,103154.38
2023-01-29T04:09:46.803Z,103145.69
2023-01-29T04:12:19.345Z,103138.59
2023-01-29T04:14:47.988Z,103136.78
2023-01-29T04:17:20.115Z,103130.53
2023-01-29T04:19:48.059Z,103130.72
2023-01-29T04:22:31.334Z,103134.34
2023-01-29T04:25:02.974Z,103134.34
2023-01-29T04:27:29.556Z,103139.63
2023-01-29T04:30:14.438Z,103127.28
2023-01-29T04:33:11.299Z,103134.16
2023-01-29T04:35:59.972Z,103125.47
2023-01-29T04:38:47.640Z,103135.00
2023-01-29T04:41:24.774Z,103132.72
2023-01-29T04:44:15.621Z,103126.00
2023-01-29T04:46:51.245Z,103118.13
2023-01-29T04:49:31.426Z,103120.56
2023-01-29T04:52:00.860Z,103117.94
2023-01-29T04:55:06.463Z,103117.09
2023-01-29T04:57:58.020Z,103109.22
2023-01-29T05:00:32.194Z,103110.06
2023-01-29T05:03:00.598Z,103103.16
2023-01-29T05:05:28.139Z,103101.34
2023-01-29T05:07:57.026Z,103104.16
2023-01-29T05:10:25.115Z,103104.34
2023-01-29T05:12:59.791Z,103095.25
2023-01-29T05:15:32.080Z,103097.25
2023-01-29T05:18:03.043Z,103093.81
2023-01-29T05:20:34.554Z,103094.81
2023-01-29T05:23:01.218Z,103107.31
2023-01-29T05:25:30.157Z,103103.69
2023-01-29T05:28:16.457Z,103114.84
2023-01-29T05:30:47.705Z,103116.84
2023-01-29T05:33:19.646Z,103120.44
2023-01-29T05:35:47.083Z,103120.28
2023-01-29T05:38:14.656Z,103112.41
2023-01-29T05:40:41.854Z,103108.94
2023-01-29T05:43:20.106Z,103113.56
2023-01-29T05:45:57.349Z,103111.75
2023-01-29T05:48:24.909Z,103106.69
2023-01-29T05:50:51.992Z,103113.75
2023-01-29T05:53:18.731Z,103113.75
2023-01-29T05:55:46.675Z,103113.75
2023-01-29T05:58:13.374Z,103110.31
2023-01-29T06:00:41.381Z,103092.91
2023-01-29T06:03:07.972Z,103094.72
2023-01-29T06:05:38.146Z,103082.56
2023-01-29T06:08:05.368Z,103077.31
2023-01-29T06:10:31.961Z,103077.31
2023-01-29T06:12:58.696Z,103074.88
2023-01-29T06:15:27.144Z,103068.78
2023-01-29T06:17:54.697Z,103073.03
2023-01-29T06:20:21.618Z,103077.50
2023-01-29T06:22:48.150Z,103067.16
2023-01-29T06:25:14.799Z,103068.78
2023-01-29T06:27:41.435Z,103067.16
2023-01-29T06:30:08.592Z,103064.53
2023-01-29T06:32:35.295Z,103061.09
2023-01-29T06:35:02.082Z,103054.22
2023-01-29T06:37:28.691Z,103064.72
2023-01-29T06:39:55.239Z,103058.63
2023-01-29T06:42:27.751Z,103058.63
2023-01-29T06:44:55.774Z,103059.47
2023-01-29T06:47:23.059Z,103060.09
2023-01-29T06:49:50.302Z,103073.25
2023-01-29T06:52:16.982Z,103070.63
2023-01-29T06:54:43.469Z,103062.09
2023-01-29T06:57:10.193Z,103053.03
2023-01-29T06:59:36.729Z,103055.81
2023-01-29T07:02:04.328Z,103060.09
2023-01-29T07:04:30.968Z,103059.25
2023-01-29T07:07:00.027Z,103057.47
2023-01-29T07:09:26.613Z,103043.50
2023-01-29T07:11:53.132Z,103058.28
2023-01-29T07:14:19.966Z,103066.16
2023-01-29T07:16:46.612Z,103055.66
2023-01-29T07:19:13.839Z,103066.97
2023-01-29T07:21:40.454Z,103056.47
2023-01-29T07:24:07.415Z,103066.34
2023-01-29T07:26:33.959Z,103066.34
2023-01-29T07:29:00.604Z,103056.00
2023-01-29T07:31:27.271Z,103048.13
2023-01-29T07:33:53.856Z,103056.00
2023-01-29T07:36:20.562Z,103061.72
2023-01-29T07:38:51.190Z,103066.25
2023-01-29T07:41:17.795Z,103053.38
2023-01-29T07:43:44.406Z,103046.59
2023-01-29T07:46:11.051Z,103039.25
2023-01-29T07:48:37.872Z,103039.31
2023-01-29T07:51:04.681Z,103041.03
2023-01-29T07:53:31.499Z,103030.78
2023-01-29T07:55:58.082Z,103038.78
2023-01-29T07:58:24.880Z,103027.31
2023-01-29T08:00:51.532Z,103017.22
2023-01-29T08:03:20.261Z,103021.75
2023-01-29T08:05:47.154Z,103013.31
2023-01-29T08:08:14.132Z,103015.56
2023-01-29T08:10:41.481Z,103013.00
2023-01-29T08:13:09.212Z,103016.31
2023-01-29T08:15:38.050Z,103006.06
2023-01-29T08:18:06.375Z,103009.75
2023-01-29T08:20:33.113Z,103010.81
2023-01-29T08:23:04.606Z,103011.88
2023-01-29T08:25:31.925Z,103010.50
2023-01-29T08:27:59.675Z,103015.19
2023-01-29T08:30:27.686Z,103012.63
2023-01-29T08:32:54.448Z,103006.38
2023-01-29T08:35:21.606Z,103003.78
2023-01-29T08:38:00.604Z,102993.88
2023-01-29T08:40:28.997Z,102997.94
2023-01-29T08:43:07.010Z,102987.44
2023-01-29T08:45:37.053Z,102981.16
2023-01-29T08:48:04.350Z,102978.94
2023-01-29T08:50:31.931Z,102976.31
2023-01-29T08:52:59.996Z,102978.56
2023-01-29T08:55:27.338Z,102976.16
2023-01-29T08:57:54.227Z,102975.59
2023-01-29T09:00:21.227Z,102975.22
2023-01-29T09:02:47.800Z,102980.47
2023-01-29T09:05:15.187Z,102980.06
2023-01-29T09:07:41.952Z,102982.97
2023-01-29T09:10:10.479Z,102976.28
2023-01-29T09:12:37.033Z,102978.94
2023-01-29T09:15:04.202Z,102972.44
2023-01-29T09:17:30.874Z,102970.84
2023-01-29T09:19:58.706Z,102972.44
2023-01-29T09:22:25.457Z,102976.31
2023-01-29T09:24:52.289Z,102976.13
2023-01-29T09:27:19.056Z,102977.13
2023-01-29T09:29:46.120Z,102976.75
2023-01-29T09:32:12.765Z,102974.75
2023-01-29T09:34:39.328Z,102984.88
2023-01-29T09:37:06.676Z,102975.19
2023-01-29T09:39:33.510Z,102973.97
2023-01-29T09:42:03.778Z,102971.72
2023-01-29T09:44:56.676Z,102962.41
2023-01-29T09:47:26.149Z,102978.47
2023-01-29T09:49:58.249Z,102971.34
2023-01-29T09:52:32.618Z,102976.03
2023-01-29T09:55:22.691Z,102970.13
2023-01-29T09:57:57.399Z,102970.16
2023-01-29T10:00:34.215Z,102974.66
2023-01-29T10:03:37.632Z,102968.38
2023-01-29T10:06:21.835Z,102978.34
2023-01-29T10:09:02.317Z,102977.34
2023-01-29T10:11:50.665Z,102970.66
2023-01-29T10:14:27.936Z,102967.00
2023-01-29T10:17:26.439Z,102965.41
2023-01-29T10:20:07.782Z,102956.03
2023-01-29T10:23:02.623Z,102954.84
2023-01-29T10:25:29.306Z,102955.47
2023-01-29T10:27:59.408Z,102952.59
2023-01-29T10:30:36.873Z,102952.03
2023-01-29T10:33:06.943Z,102952.81
2023-01-29T10:35:41.192Z,102941.47
2023-01-29T10:38:28.556Z,102926.25
2023-01-29T10:41:08.460Z,102933.13
2023-01-29T10:44:12.851Z,102922.16
2023-01-29T10:46:52.397Z,102917.28
2023-01-29T10:49:37.725Z,102915.28
2023-01-29T10:52:50.389Z,102901.28
2023-01-29T10:55:34.796Z,102902.88
2023-01-29T10:58:28.879Z,102898.22
2023-01-29T11:00:55.509Z,102903.50
2023-01-29T11:03:27.985Z,102898.66
2023-01-29T11:06:14.094Z,102889.31
2023-01-29T11:08:49.588Z,102893.16
2023-01-29T11:11:18.980Z,102886.66
2023-01-29T11:13:55.535Z,102888.09
2023-01-29T11:16:22.299Z,102876.09
2023-01-29T11:18:56.099Z,102873.69
2023-01-29T11:21:24.467Z,102872.84
2023-01-29T11:24:04.867Z,102869.00
2023-01-29T11:26:35.917Z,102873.88
2023-01-29T11:29:02.544Z,102878.97
2023-01-29T11:31:39.063Z,102868.59
2023-01-29T11:34:13.693Z,102873.06
2023-01-29T11:36:40.517Z,102857.84
2023-01-29T11:39:20.354Z,102869.00
2023-01-29T11:41:57.979Z,102852.97
2023-01-29T11:44:30.173Z,102852.16
2023-01-29T11:47:09.670Z,102853.38
2023-01-29T11:49:37.369Z,102841.41
2023-01-29T11:52:07.488Z,102842.59
2023-01-29T11:54:47.203Z,102846.06
2023-01-29T11:57:22.358Z,102841.19
2023-01-29T11:59:52.340Z,102833.50
2023-01-29T12:02:39.076Z,102839.38
2023-01-29T12:05:15.987Z,102829.81
2023-01-29T12:07:45.683Z,102822.50
2023-01-29T12:10:30.595Z,102818.25
2023-01-29T12:13:06.090Z,102824.94
2023-01-29T12:15:33.013Z,102821.28
2023-01-29T12:18:30.013Z,102809.72
2023-01-29T12:21:12.508Z,102786.16
2023-01-29T12:23:55.021Z,102793.06
2023-01-29T12:26:30.000Z,102783.34
2023-01-29T12:29:20.689Z,102774.19
2023-01-29T12:32:05.386Z,102773.78
2023-01-29T12:35:01.729Z,102763.44
2023-01-29T12:37:38.463Z,102761.19
2023-01-29T12:40:16.770Z,102753.88
2023-01-29T12:42:48.816Z,102756.31
2023-01-29T12:45:21.036Z,102746.56
2023-01-29T12:47:52.922Z,102738.25
2023-01-29T12:50:30.287Z,102729.88
2023-01-29T12:53:02.092Z,102728.88
2023-01-29T12:55:34.949Z,102713.66
2023-01-29T12:58:04.572Z,102705.50
2023-01-29T13:00:40.527Z,102701.06
2023-01-29T13:03:17.398Z,102702.25
2023-01-29T13:05:56.123Z,102693.13
2023-01-29T13:08:35.941Z,102677.91
2023-01-29T13:11:08.770Z,102666.13
2023-01-29T13:13:54.582Z,102661.25
2023-01-29T13:16:30.501Z,102658.22
2023-01-29T13:19:00.832Z,102641.94
2023-01-29T13:21:31.168Z,102634.22
2023-01-29T13:24:05.298Z,102630.97
2023-01-29T13:26:32.678Z,102622.00
2023-01-29T13:28:59.538Z,102623.06
2023-01-29T13:31:28.924Z,102616.13
2023-01-29T13:33:59.404Z,102606.78
2023-01-29T13:36:29.822Z,102610.63
2023-01-29T13:39:00.208Z,102606.56
2023-01-29T13:41:40.137Z,102596.38
2023-01-29T13:44:18.429Z,102603.06
2023-01-29T13:46:57.876Z,102594.13
2023-01-29T13:49:47.529Z,102607.13
2023-01-29T13:52:21.455Z,102599.75
2023-01-29T13:54:58.018Z,102599.38
2023-01-29T13:57:47.780Z,102588.59
2023-01-29T14:00:17.075Z,102600.38
2023-01-29T14:02:43.598Z,102598.97
2023-01-29T14:05:32.004Z,102587.38
2023-01-29T14:08:00.625Z,102600.34
2023-01-29T14:10:29.862Z,102585.91
2023-01-29T14:13:11.590Z,102589.50
2023-01-29T14:15:41.986Z,102583.63
2023-01-29T14:18:08.594Z,102583.44
2023-01-29T14:20:50.326Z,102566.50
2023-01-29T14:23:41.993Z,102571.41
2023-01-29T14:26:29.095Z,102572.41
2023-01-29T14:29:04.451Z,102574.84
2023-01-29T14:31:43.780Z,102582.56
2023-01-29T14:34:21.022Z,102571.81
2023-01-29T14:36:55.318Z,102573.63
2023-01-29T14:39:42.349Z,102563.28
2023-01-29T14:42:22.511Z,102553.44
2023-01-29T14:44:58.777Z,102552.88
2023-01-29T14:47:28.563Z,102546.78
2023-01-29T14:50:00.846Z,102544.72
2023-01-29T14:52:37.697Z,102555.28
2023-01-29T14:55:09.474Z,102544.50
2023-01-29T14:57:40.427Z,102560.97
2023-01-29T15:00:26.962Z,102551.03
2023-01-29T15:03:02.007Z,102545.53
2023-01-29T15:05:36.134Z,102530.91
2023-01-29T15:08:30.410Z,102531.50
2023-01-29T15:11:21.222Z,102520.94
2023-01-29T15:13:55.592Z,102520.34
2023-01-29T15:16:43.708Z,102514.41
2023-01-29T15:19:18.335Z,102512.81
2023-01-29T15:22:08.732Z,102519.91
2023-01-29T15:24:36.947Z,102513.88
2023-01-29T15:27:05.827Z,102513.88
2023-01-29T15:29:32.619Z,102511.25
2023-01-29T15:31:59.610Z,102515.28
2023-01-29T15:34:26.536Z,102514.88
2023-01-29T15:36:53.222Z,102515.47
2023-01-29T15:39:23.592Z,102508.59
2023-01-29T15:42:04.271Z,102492.75
2023-01-29T15:44:30.819Z,102491.34
2023-01-29T15:47:00.991Z,102487.47
2023-01-29T15:49:36.460Z,102482.19
2023-01-29T15:52:09.814Z,102484.38
2023-01-29T15:54:36.403Z,102479.31
2023-01-29T15:57:03.932Z,102481.97
2023-01-29T15:59:44.898Z,102483.19
2023-01-29T16:02:29.149Z,102476.09
2023-01-29T16:04:56.131Z,102487.88
2023-01-29T16:07:22.930Z,102494.41
2023-01-29T16:09:52.754Z,102492.16
2023-01-29T16:12:19.892Z,102498.22
2023-01-29T16:14:47.592Z,102504.75
2023-01-29T16:17:25.877Z,102497.69
2023-01-29T16:20:00.607Z,102497.69
2023-01-29T16:22:32.647Z,102503.44
2023-01-29T16:25:03.556Z,102488.19
2023-01-29T16:27:31.296Z,102499.59
2023-01-29T16:29:58.199Z,102498.19
2023-01-29T16:32:24.811Z,102486.81
2023-01-29T16:34:57.948Z,102490.69
2023-01-29T16:37:32.156Z,102499.47
2023-01-29T16:39:59.522Z,102479.81
2023-01-29T16:42:28.908Z,102476.94
2023-01-29T16:45:04.830Z,102463.97
2023-01-29T16:47:41.637Z,102471.66
2023-01-29T16:50:35.999Z,102462.72
2023-01-29T16:53:13.102Z,102466.78
2023-01-29T16:55:42.652Z,102477.38
2023-01-29T16:58:25.097Z,102464.78
2023-01-29T17:01:01.283Z,102456.41
2023-01-29T17:03:30.671Z,102455.69
2023-01-29T17:05:57.891Z,102451.59
2023-01-29T17:08:32.789Z,102458.31
2023-01-29T17:10:59.932Z,102453.47
2023-01-29T17:13:46.015Z,102463.81
2023-01-29T17:16:33.380Z,102458.97
2023-01-29T17:19:00.900Z,102453.09
2023-01-29T17:21:29.311Z,102452.28
2023-01-29T17:23:55.982Z,102445.38
2023-01-29T17:26:24.929Z,102443.53
2023-01-29T17:28:53.931Z,102440.69
2023-01-29T17:31:20.594Z,102448.41
2023-01-29T17:33:47.566Z,102438.06
2023-01-29T17:36:15.988Z,102441.50
2023-01-29T17:38:42.643Z,102442.53
2023-01-29T17:41:18.673Z,102443.31
2023-01-29T17:43:45.819Z,102434.00
2023-01-29T17:46:15.128Z,102428.13
2023-01-29T17:48:42.721Z,102421.47
2023-01-29T17:51:13.568Z,102412.50
2023-01-29T17:53:46.008Z,102405.84
2023-01-29T17:56:16.989Z,102410.31
2023-01-29T17:58:43.815Z,102392.03
2023-01-29T18:01:10.568Z,102399.97
2023-01-29T18:03:37.326Z,102385.72
2023-01-29T18:06:07.475Z,102386.56
2023-01-29T18:08:36.616Z,102391.84
2023-01-29T18:11:03.354Z,102383.31
2023-01-29T18:13:30.169Z,102378.25
2023-01-29T18:15:56.941Z,102382.88
2023-01-29T18:18:24.419Z,102376.78
2023-01-29T18:20:51.111Z,102378.19
2023-01-29T18:23:17.840Z,102367.41
2023-01-29T18:25:45.221Z,102363.16
2023-01-29T18:28:19.630Z,102365.78
2023-01-29T18:30:47.495Z,102361.09
2023-01-29T18:33:15.321Z,102354.22
2023-01-29T18:35:44.476Z,102345.91
2023-01-29T18:38:11.421Z,102339.19
2023-01-29T18:40:37.977Z,102340.56
2023-01-29T18:43:04.609Z,102332.06
2023-01-29T18:45:31.449Z,102329.81
2023-01-29T18:47:58.553Z,102318.44
2023-01-29T18:50:26.469Z,102304.44
2023-01-29T18:52:54.492Z,102305.66
2023-01-29T18:55:22.165Z,102304.88
2023-01-29T18:58:26.655Z,102297.91
2023-01-29T19:00:40.312Z,102297.25
2023-01-29T19:03:06.924Z,102290.59
2023-01-29T19:05:34.044Z,102287.16
2023-01-29T19:08:01.852Z,102274.53
2023-01-29T19:10:28.542Z,102278.41
2023-01-29T19:12:55.266Z,102270.13
2023-01-29T19:15:22.994Z,102262.22
2023-01-29T19:17:52.972Z,102256.94
2023-01-29T19:20:19.958Z,102255.09
2023-01-29T19:22:46.949Z,102246.59
2023-01-29T19:25:13.998Z,102256.94
2023-01-29T19:27:40.791Z,102274.38
2023-01-29T19:30:08.654Z,102264.03
2023-01-29T19:32:35.541Z,102259.34
2023-01-29T19:35:02.377Z,102241.81
2023-01-29T19:37:30.531Z,102242.84
2023-01-29T19:39:57.165Z,102253.19
2023-01-29T19:42:24.019Z,102263.59
2023-01-29T19:44:52.296Z,102251.38
2023-01-29T19:47:19.077Z,102236.47
2023-01-29T19:49:45.891Z,102262.72
2023-01-29T19:52:49.775Z,102249.53
2023-01-29T19:55:17.892Z,102236.09
2023-01-29T19:57:44.926Z,102231.41
2023-01-29T20:00:12.216Z,102231.63
2023-01-29T20:02:39.036Z,102231.19
2023-01-29T20:05:07.941Z,102233.81
2023-01-29T20:07:36.089Z,102236.69
2023-01-29T20:10:03.608Z,102244.97
2023-01-29T20:12:30.234Z,102233.81
2023-01-29T20:14:56.918Z,102225.09
2023-01-29T20:17:23.747Z,102225.25
2023-01-29T20:19:50.358Z,102221.19
2023-01-29T20:22:17.291Z,102231.97
2023-01-29T20:24:43.934Z,102227.28
2023-01-29T20:27:11.297Z,102234.22
2023-01-29T20:29:39.538Z,102225.69
2023-01-29T20:32:08.733Z,102225.84
2023-01-29T20:34:35.466Z,102205.09
2023-01-29T20:37:02.238Z,102205.53
2023-01-29T20:39:28.804Z,102201.28
2023-01-29T20:41:57.292Z,102215.44
2023-01-29T20:44:25.009Z,102233.34
2023-01-29T20:46:52.642Z,102218.66
2023-01-29T20:49:19.621Z,102214.84
2023-01-29T20:51:46.438Z,102206.72
2023-01-29T20:54:13.246Z,102208.09
2023-01-29T20:56:43.618Z,102218.88
2023-01-29T20:59:12.609Z,102210.53
2023-01-29T21:01:39.141Z,102200.97
2023-01-29T21:04:05.900Z,102202.59
2023-01-29T21:06:32.555Z,102205.88
2023-01-29T21:08:59.111Z,102198.22
2023-01-29T21:11:25.961Z,102196.22
2023-01-29T21:13:57.542Z,102205.56
2023-01-29T21:16:26.303Z,102216.22
2023-01-29T21:18:59.232Z,102212.84
2023-01-29T21:21:26.901Z,102212.47
2023-01-29T21:23:54.351Z,102193.03
2023-01-29T21:26:21.236Z,102210.56
2023-01-29T21:28:47.924Z,102209.16
2023-01-29T21:31:16.337Z,102212.69
2023-01-29T21:33:43.543Z,102200.97
2023-01-29T21:36:10.524Z,102197.75
2023-01-29T21:38:37.288Z,102208.50
2023-01-29T21:41:05.708Z,102199.41
2023-01-29T21:43:32.223Z,102213.63
2023-01-29T21:46:02.564Z,102192.97
2023-01-29T21:48:29.264Z,102183.41
2023-01-29T21:50:55.844Z,102152.78
2023-01-29T21:53:22.836Z,102143.25
2023-01-29T21:55:49.448Z,102126.03
2023-01-29T21:58:16.134Z,102125.44
2023-01-29T22:00:42.816Z,102099.88
2023-01-29T22:03:09.436Z,102090.38
2023-01-29T22:05:36.001Z,102083.03
2023-01-29T22:08:04.803Z,102071.09
2023-01-29T22:10:33.903Z,102082.66
2023-01-29T22:13:01.962Z,102068.66
2023-01-29T22:15:28.804Z,102064.41
2023-01-29T22:17:55.414Z,102091.03
2023-01-29T22:20:29.820Z,102100.78
2023-01-29T22:23:00.670Z,102092.88
2023-01-29T22:25:27.747Z,102075.19
2023-01-29T22:27:54.447Z,102058.56
2023-01-29T22:30:23.366Z,102069.94
2023-01-29T22:32:50.527Z,102055.94
2023-01-29T22:35:17.748Z,102073.56
2023-01-29T22:37:45.156Z,102072.56
2023-01-29T22:40:12.908Z,102065.44
2023-01-29T22:42:39.410Z,102047.78
2023-01-29T22:45:06.481Z,102050.41
2023-01-29T22:47:33.777Z,102033.78
2023-01-29T22:50:00.310Z,102030.94
2023-01-29T22:52:27.985Z,102026.25
2023-01-29T22:54:54.578Z,102016.50
2023-01-29T22:57:21.106Z,102018.47
2023-01-29T22:59:47.684Z,102019.72
2023-01-29T23:02:14.437Z,102012.41
2023-01-29T23:04:41.093Z,102035.94
2023-01-29T23:07:07.719Z,102046.81
2023-01-29T23:09:34.249Z,102033.03
2023-01-29T23:12:01.539Z,102018.84
2023-01-29T23:14:28.067Z,102020.22
2023-01-29T23:16:54.799Z,102018.16
2023-01-29T23:19:21.498Z,102008.41
2023-01-29T23:21:48.137Z,101995.00
2023-01-29T23:24:14.656Z,102005.34
2023-01-29T23:26:59.951Z,102007.97
2023-01-29T23:29:26.975Z,102004.09
2023-01-29T23:31:53.586Z,101985.41
2023-01-29T23:34:20.677Z,101969.34
2023-01-29T23:36:47.551Z,101962.59
2023-01-29T23:39:14.053Z,101956.28
2023-01-29T23:41:40.575Z,101961.09
2023-01-29T23:44:07.249Z,101961.91
2023-01-29T23:46:34.083Z,101936.91
2023-01-29T23:49:00.749Z,101948.84
2023-01-29T23:51:27.539Z,101959.41
2023-01-29T23:53:54.462Z,101956.31
2023-01-29T23:56:21.436Z,101950.78
2023-01-29T23:58:48.116Z,101945.50
